createdAt,value
2023-08-26T00:00:48.282Z,1.80
2023-08-26T00:03:50.183Z,1.70
2023-08-26T00:06:52.205Z,1.88
2023-08-26T00:09:54.077Z,1.88
2023-08-26T00:12:56.402Z,1.67
2023-08-26T00:15:58.282Z,1.80
2023-08-26T00:19:03.468Z,1.65
2023-08-26T00:22:06.328Z,1.80
2023-08-26T00:25:08.725Z,1.95
2023-08-26T00:28:10.473Z,2.17
2023-08-26T00:31:12.708Z,2.08
2023-08-26T00:34:14.566Z,2.17
2023-08-26T00:37:16.755Z,2.20
2023-08-26T00:40:19.005Z,2.10
2023-08-26T00:43:21.186Z,2.10
2023-08-26T00:46:26.540Z,2.03
2023-08-26T00:49:29.161Z,1.95
2023-08-26T00:52:32.491Z,2.05
2023-08-26T00:55:36.595Z,2.10
2023-08-26T00:58:38.994Z,2.00
2023-08-26T01:01:42.853Z,2.10
2023-08-26T01:04:44.806Z,2.20
2023-08-26T01:07:46.916Z,2.00
2023-08-26T01:11:01.637Z,2.30
2023-08-26T01:14:18.411Z,2.08
2023-08-26T01:17:21.879Z,2.20
2023-08-26T01:20:25.777Z,2.22
2023-08-26T01:23:35.530Z,2.30
2023-08-26T01:26:37.280Z,1.98
2023-08-26T01:29:39.159Z,2.38
2023-08-26T01:32:45.604Z,2.15
2023-08-26T01:35:50.374Z,2.10
2023-08-26T01:38:55.590Z,2.50
2023-08-26T01:42:00.072Z,2.10
2023-08-26T01:45:02.008Z,2.15
2023-08-26T01:48:04.018Z,2.25
2023-08-26T01:51:06.192Z,2.05
2023-08-26T01:54:08.062Z,2.30
2023-08-26T01:57:10.006Z,2.08
2023-08-26T02:00:12.436Z,2.30
2023-08-26T02:03:16.922Z,2.10
2023-08-26T02:06:19.813Z,1.98
2023-08-26T02:09:22.462Z,1.92
2023-08-26T02:12:24.182Z,2.30
2023-08-26T02:15:26.296Z,2.05
2023-08-26T02:18:32.660Z,2.15
2023-08-26T02:21:34.416Z,1.98
2023-08-26T02:24:37.241Z,2.08
2023-08-26T02:27:39.037Z,2.28
2023-08-26T02:30:40.928Z,2.13
2023-08-26T02:33:42.791Z,2.20
2023-08-26T02:36:45.891Z,2.08
2023-08-26T02:39:47.648Z,2.08
2023-08-26T02:42:49.503Z,2.20
2023-08-26T02:45:59.003Z,1.90
2023-08-26T02:49:02.500Z,2.28
2023-08-26T02:52:04.698Z,2.20
2023-08-26T02:55:06.671Z,2.08
2023-08-26T02:58:09.295Z,2.10
2023-08-26T03:01:11.143Z,2.10
2023-08-26T03:04:12.992Z,1.90
2023-08-26T03:07:14.828Z,2.10
2023-08-26T03:10:16.664Z,2.30
2023-08-26T03:13:18.994Z,1.88
2023-08-26T03:16:23.518Z,2.00
2023-08-26T03:19:25.398Z,2.10
2023-08-26T03:22:27.588Z,2.10
2023-08-26T03:25:35.234Z,2.20
2023-08-26T03:28:37.606Z,2.10
2023-08-26T03:34:49.506Z,2.05
2023-08-26T03:37:51.342Z,1.88
2023-08-26T03:40:53.154Z,2.00
2023-08-26T03:43:58.300Z,1.95
2023-08-26T03:47:00.003Z,1.93
2023-08-26T03:50:02.260Z,2.08
2023-08-26T03:53:04.387Z,1.80
2023-08-26T03:56:06.377Z,1.85
2023-08-26T03:59:09.209Z,2.20
2023-08-26T04:02:11.618Z,1.85
2023-08-26T04:05:14.413Z,1.83
2023-08-26T04:08:16.400Z,1.75
2023-08-26T04:11:18.944Z,2.15
2023-08-26T04:14:20.804Z,2.17
2023-08-26T04:17:22.618Z,1.80
2023-08-26T04:20:24.279Z,1.90
2023-08-26T04:23:26.328Z,2.10
2023-08-26T04:26:29.298Z,2.10
2023-08-26T04:29:31.185Z,1.90
2023-08-26T04:32:33.835Z,1.90
2023-08-26T04:35:38.966Z,1.80
2023-08-26T04:38:41.901Z,1.80
2023-08-26T04:41:44.850Z,1.95
2023-08-26T04:44:49.752Z,1.85
2023-08-26T04:47:52.393Z,1.90
2023-08-26T04:50:57.719Z,1.90
2023-08-26T04:54:00.150Z,1.63
2023-08-26T04:57:03.480Z,1.50
2023-08-26T05:00:12.418Z,1.95
2023-08-26T05:03:14.616Z,1.90
2023-08-26T05:06:16.798Z,2.00
2023-08-26T05:09:18.507Z,1.90
2023-08-26T05:12:22.863Z,1.90
2023-08-26T05:15:28.106Z,1.80
2023-08-26T05:18:30.670Z,1.92
2023-08-26T05:21:32.869Z,1.88
2023-08-26T05:24:35.263Z,1.88
2023-08-26T05:27:37.953Z,1.80
2023-08-26T05:30:39.916Z,2.10
2023-08-26T05:33:41.826Z,1.95
2023-08-26T05:36:43.892Z,2.00
2023-08-26T05:39:45.745Z,1.75
2023-08-26T05:42:47.414Z,1.70
2023-08-26T05:45:49.286Z,1.90
2023-08-26T05:48:51.262Z,2.08
2023-08-26T05:51:53.332Z,2.10
2023-08-26T05:54:55.391Z,2.17
2023-08-26T05:57:57.603Z,2.00
2023-08-26T06:01:00.438Z,2.05
2023-08-26T06:04:03.184Z,2.10
2023-08-26T06:07:06.494Z,1.70
2023-08-26T06:10:08.377Z,1.80
2023-08-26T06:13:13.402Z,1.67
2023-08-26T06:16:20.454Z,1.90
2023-08-26T06:19:22.390Z,1.83
2023-08-26T06:22:24.208Z,1.90
2023-08-26T06:25:26.050Z,1.70
2023-08-26T06:28:27.781Z,1.77
2023-08-26T06:31:31.660Z,1.80
2023-08-26T06:34:33.559Z,1.85
2023-08-26T06:37:36.346Z,1.90
2023-08-26T06:40:38.264Z,1.92
2023-08-26T06:43:40.227Z,1.73
2023-08-26T06:46:42.091Z,1.80
2023-08-26T06:49:44.567Z,1.70
2023-08-26T06:52:47.897Z,1.77
2023-08-26T06:55:52.847Z,1.58
2023-08-26T06:58:54.730Z,1.70
2023-08-26T07:01:56.626Z,1.48
2023-08-26T07:05:00.273Z,1.38
2023-08-26T07:08:02.082Z,1.45
2023-08-26T07:11:06.690Z,1.70
2023-08-26T07:14:08.441Z,1.33
2023-08-26T07:17:10.210Z,1.60
2023-08-26T07:20:12.473Z,1.40
2023-08-26T07:23:14.199Z,1.48
2023-08-26T07:26:15.914Z,1.48
2023-08-26T07:29:17.839Z,1.60
2023-08-26T07:32:19.656Z,1.35
2023-08-26T07:35:21.781Z,1.40
2023-08-26T07:38:23.510Z,1.40
2023-08-26T07:41:26.995Z,1.35
2023-08-26T07:44:29.955Z,1.40
2023-08-26T07:50:39.428Z,1.30
2023-08-26T07:53:41.198Z,1.25
2023-08-26T07:56:43.033Z,1.40
2023-08-26T07:59:44.837Z,1.20
2023-08-26T08:02:46.564Z,1.23
2023-08-26T08:05:48.443Z,1.30
2023-08-26T08:08:50.211Z,1.10
2023-08-26T08:11:51.951Z,1.20
2023-08-26T08:14:53.782Z,1.20
2023-08-26T08:17:56.450Z,1.20
2023-08-26T08:20:58.679Z,1.40
2023-08-26T08:24:01.469Z,1.30
2023-08-26T08:27:03.586Z,1.30
2023-08-26T08:30:06.410Z,1.20
2023-08-26T08:33:11.399Z,1.27
2023-08-26T08:36:13.274Z,1.20
2023-08-26T08:39:17.402Z,1.40
2023-08-26T08:42:19.824Z,1.20
2023-08-26T08:45:22.798Z,1.23
2023-08-26T08:48:24.699Z,1.20
2023-08-26T08:51:30.128Z,1.20
2023-08-26T08:54:33.484Z,1.10
2023-08-26T08:57:41.685Z,1.40
2023-08-26T09:00:43.587Z,1.25
2023-08-26T09:03:47.824Z,1.20
2023-08-26T09:06:50.369Z,1.30
2023-08-26T09:10:01.980Z,1.20
2023-08-26T09:13:05.879Z,1.20
2023-08-26T09:16:08.842Z,1.40
2023-08-26T09:19:14.276Z,1.30
2023-08-26T09:22:18.070Z,1.50
2023-08-26T09:25:19.810Z,1.23
2023-08-26T09:28:21.729Z,1.30
2023-08-26T09:31:23.701Z,1.20
2023-08-26T09:34:31.285Z,1.50
2023-08-26T09:37:33.362Z,1.20
2023-08-26T09:40:35.212Z,1.30
2023-08-26T09:43:37.380Z,1.48
2023-08-26T09:46:41.334Z,1.40
2023-08-26T09:49:49.504Z,1.40
2023-08-26T09:52:53.654Z,1.40
2023-08-26T09:55:57.828Z,1.35
2023-08-26T09:58:59.588Z,1.38
2023-08-26T10:02:07.893Z,1.33
2023-08-26T10:05:16.065Z,1.40
2023-08-26T10:08:20.767Z,1.33
2023-08-26T10:11:23.329Z,1.40
2023-08-26T10:14:26.878Z,1.40
2023-08-26T10:17:31.990Z,1.17
2023-08-26T10:20:34.849Z,1.20
2023-08-26T10:23:38.244Z,1.15
2023-08-26T10:26:41.197Z,1.38
2023-08-26T10:29:44.737Z,1.40
2023-08-26T10:32:48.238Z,1.33
2023-08-26T10:36:17.657Z,1.42
2023-08-26T10:39:22.720Z,1.25
2023-08-26T10:42:25.086Z,1.30
2023-08-26T10:45:27.375Z,1.35
2023-08-26T10:48:29.202Z,1.35
2023-08-26T10:51:37.617Z,1.40
2023-08-26T10:54:43.471Z,1.23
2023-08-26T11:01:12.560Z,1.30
2023-08-26T11:04:14.336Z,1.40
2023-08-26T11:07:17.655Z,1.40
2023-08-26T11:10:32.004Z,1.40
2023-08-26T11:13:33.794Z,1.40
2023-08-26T11:16:35.678Z,1.48
2023-08-26T11:19:38.519Z,1.50
2023-08-26T11:22:40.555Z,1.20
2023-08-26T11:25:42.291Z,1.45
2023-08-26T11:28:48.443Z,1.30
2023-08-26T11:31:50.283Z,1.20
2023-08-26T11:34:53.856Z,1.25
2023-08-26T11:37:55.842Z,1.23
2023-08-26T11:40:57.945Z,1.23
2023-08-26T11:44:00.078Z,1.20
2023-08-26T11:47:01.954Z,1.20
2023-08-26T11:50:04.961Z,1.20
2023-08-26T11:53:07.275Z,1.20
2023-08-26T11:56:09.238Z,1.10
2023-08-26T11:59:21.387Z,1.40
2023-08-26T12:02:25.840Z,1.30
2023-08-26T12:05:30.911Z,1.10
2023-08-26T12:08:33.501Z,1.30
2023-08-26T12:11:39.453Z,1.30
2023-08-26T12:17:48.234Z,1.30
2023-08-26T12:20:51.269Z,1.30
2023-08-26T12:23:53.107Z,1.50
2023-08-26T12:26:55.167Z,1.40
2023-08-26T12:29:56.965Z,1.60
2023-08-26T12:32:58.742Z,1.10
2023-08-26T12:36:00.532Z,1.30
2023-08-26T12:39:02.267Z,1.42
2023-08-26T12:42:04.219Z,1.40
2023-08-26T12:45:06.721Z,1.48
2023-08-26T12:48:08.573Z,1.50
2023-08-26T12:51:11.089Z,1.33
2023-08-26T12:54:13.348Z,1.50
2023-08-26T12:57:16.310Z,1.58
2023-08-26T13:00:18.282Z,1.48
2023-08-26T13:03:23.092Z,1.48
2023-08-26T13:06:27.570Z,1.50
2023-08-26T13:09:30.481Z,1.40
2023-08-26T13:12:32.397Z,1.52
2023-08-26T13:15:34.456Z,1.30
2023-08-26T13:18:36.242Z,1.40
2023-08-26T13:21:38.014Z,1.50
2023-08-26T13:24:43.551Z,1.42
2023-08-26T13:27:45.415Z,1.42
2023-08-26T13:30:47.968Z,1.50
2023-08-26T13:33:49.831Z,1.40
2023-08-26T13:36:54.377Z,1.40
2023-08-26T13:39:56.399Z,1.30
2023-08-26T13:42:58.273Z,1.40
2023-08-26T13:46:04.056Z,1.40
2023-08-26T13:49:05.893Z,1.40
2023-08-26T13:52:07.742Z,1.40
2023-08-26T13:55:11.665Z,1.50
2023-08-26T13:58:15.899Z,1.30
2023-08-26T14:01:19.373Z,1.30
2023-08-26T14:04:22.381Z,1.50
2023-08-26T14:07:24.288Z,1.40
2023-08-26T14:10:27.992Z,1.45
2023-08-26T14:13:29.930Z,1.20
2023-08-26T14:16:31.793Z,1.30
2023-08-26T14:19:37.205Z,1.27
2023-08-26T14:22:39.056Z,1.50
2023-08-26T14:25:43.457Z,1.40
2023-08-26T14:28:45.191Z,1.30
2023-08-26T14:31:47.086Z,1.20
2023-08-26T14:34:48.837Z,1.40
2023-08-26T14:37:50.568Z,1.40
2023-08-26T14:40:52.460Z,1.40
2023-08-26T14:43:54.353Z,1.50
2023-08-26T14:46:56.193Z,1.20
2023-08-26T14:49:57.951Z,1.55
2023-08-26T14:53:00.781Z,1.58
2023-08-26T14:56:04.161Z,1.40
2023-08-26T14:59:05.954Z,1.50
2023-08-26T15:02:07.740Z,1.30
2023-08-26T15:05:10.024Z,1.60
2023-08-26T15:08:11.789Z,1.60
2023-08-26T15:11:13.632Z,1.63
2023-08-26T15:14:15.340Z,1.50
2023-08-26T15:17:17.181Z,1.65
2023-08-26T15:20:19.215Z,1.70
2023-08-26T15:23:21.345Z,1.50
2023-08-26T15:26:23.073Z,1.55
2023-08-26T15:29:24.837Z,1.50
2023-08-26T15:32:26.603Z,1.60
2023-08-26T15:35:29.640Z,1.48
2023-08-26T15:38:31.565Z,2.17
2023-08-26T15:41:33.355Z,1.75
2023-08-26T15:44:35.150Z,1.52
2023-08-26T15:47:36.935Z,1.60
2023-08-26T15:50:41.254Z,1.55
2023-08-26T15:53:43.109Z,1.50
2023-08-26T15:56:45.620Z,1.52
2023-08-26T15:59:47.527Z,1.55
2023-08-26T16:02:49.575Z,1.52
2023-08-26T16:05:54.705Z,1.60
2023-08-26T16:08:56.720Z,1.90
2023-08-26T16:11:59.391Z,1.65
2023-08-26T16:15:02.765Z,1.60
2023-08-26T16:18:04.687Z,1.40
2023-08-26T16:21:07.986Z,1.70
2023-08-26T16:24:11.154Z,1.80
2023-08-26T16:27:12.904Z,1.67
2023-08-26T16:30:15.228Z,1.70
2023-08-26T16:33:17.307Z,1.80
2023-08-26T16:36:19.238Z,1.80
2023-08-26T16:39:20.999Z,1.80
2023-08-26T16:42:22.808Z,1.80
2023-08-26T16:45:24.617Z,1.88
2023-08-26T16:48:26.996Z,1.95
2023-08-26T16:51:28.935Z,1.83
2023-08-26T16:54:30.810Z,1.90
2023-08-26T16:57:32.593Z,2.03
2023-08-26T17:00:35.148Z,2.10
2023-08-26T17:03:36.918Z,2.15
2023-08-26T17:06:38.726Z,2.30
2023-08-26T17:09:40.420Z,2.10
2023-08-26T17:12:42.118Z,2.10
2023-08-26T17:15:43.860Z,1.90
2023-08-26T17:18:45.644Z,2.20
2023-08-26T17:21:47.521Z,2.30
2023-08-26T17:24:51.074Z,2.15
2023-08-26T17:27:53.144Z,2.00
2023-08-26T17:30:56.235Z,2.20
2023-08-26T17:33:58.109Z,1.80
2023-08-26T17:37:00.026Z,1.70
2023-08-26T17:40:01.769Z,1.80
2023-08-26T17:43:03.538Z,1.88
2023-08-26T17:46:05.326Z,2.00
2023-08-26T17:49:07.105Z,1.77
2023-08-26T17:52:09.213Z,1.80
2023-08-26T17:55:11.452Z,1.90
2023-08-26T17:58:13.398Z,1.77
2023-08-26T18:01:15.199Z,1.85
2023-08-26T18:04:18.128Z,1.90
2023-08-26T18:07:20.346Z,1.80
2023-08-26T18:10:25.355Z,1.92
2023-08-26T18:13:27.145Z,1.85
2023-08-26T18:16:29.237Z,1.80
2023-08-26T18:19:31.095Z,1.75
2023-08-26T18:22:32.790Z,2.25
2023-08-26T18:25:35.225Z,1.80
2023-08-26T18:28:39.962Z,1.65
2023-08-26T18:31:42.132Z,1.67
2023-08-26T18:34:46.333Z,1.63
2023-08-26T18:37:48.141Z,2.00
2023-08-26T18:40:57.337Z,1.50
2023-08-26T18:43:59.061Z,1.80
2023-08-26T18:47:00.781Z,1.60
2023-08-26T18:50:05.104Z,1.60
2023-08-26T18:53:09.790Z,1.55
2023-08-26T18:56:11.709Z,1.73
2023-08-26T18:59:13.581Z,1.88
2023-08-26T19:02:15.499Z,1.88
2023-08-26T19:05:19.192Z,1.63
2023-08-26T19:08:20.977Z,1.55
2023-08-26T19:11:22.713Z,1.80
2023-08-26T19:14:24.642Z,1.90
2023-08-26T19:17:26.511Z,1.67
2023-08-26T19:20:28.292Z,1.50
2023-08-26T19:23:30.016Z,1.50
2023-08-26T19:26:33.169Z,1.58
2023-08-26T19:29:36.009Z,1.70
2023-08-26T19:32:37.847Z,1.92
2023-08-26T19:35:40.938Z,1.77
2023-08-26T19:38:42.880Z,1.67
2023-08-26T19:41:44.696Z,1.75
2023-08-26T19:44:46.489Z,1.77
2023-08-26T19:47:48.312Z,1.70
2023-08-26T19:50:50.454Z,1.67
2023-08-26T19:53:54.281Z,1.75
2023-08-26T19:56:56.458Z,1.77
2023-08-26T19:59:58.894Z,1.52
2023-08-26T20:03:01.025Z,1.70
2023-08-26T20:06:03.267Z,1.80
2023-08-26T20:09:05.037Z,2.00
2023-08-26T20:12:07.040Z,1.63
2023-08-26T20:15:09.047Z,1.80
2023-08-26T20:18:10.919Z,1.63
2023-08-26T20:21:12.798Z,1.73
2023-08-26T20:24:14.553Z,1.90
2023-08-26T20:27:16.871Z,1.80
2023-08-26T20:30:18.954Z,1.70
2023-08-26T20:33:20.858Z,1.90
2023-08-26T20:36:22.640Z,1.80
2023-08-26T20:39:27.499Z,1.80
2023-08-26T20:42:29.330Z,1.83
2023-08-26T20:45:32.738Z,1.60
2023-08-26T20:48:34.684Z,1.77
2023-08-26T20:51:36.502Z,1.60
2023-08-26T20:54:38.190Z,1.70
2023-08-26T20:57:40.062Z,1.58
2023-08-26T21:00:44.473Z,1.80
2023-08-26T21:03:46.774Z,1.52
2023-08-26T21:06:48.546Z,1.65
2023-08-26T21:09:50.381Z,1.55
2023-08-26T21:12:52.252Z,1.73
2023-08-26T21:15:54.232Z,1.60
2023-08-26T21:18:56.221Z,1.48
2023-08-26T21:21:58.548Z,1.70
2023-08-26T21:25:00.381Z,1.50
2023-08-26T21:28:02.224Z,1.45
2023-08-26T21:31:08.395Z,1.63
2023-08-26T21:34:10.251Z,1.65
2023-08-26T21:37:12.440Z,1.70
2023-08-26T21:40:17.448Z,1.80
2023-08-26T21:43:19.432Z,1.52
2023-08-26T21:46:21.472Z,1.52
2023-08-26T21:49:23.412Z,1.60
2023-08-26T21:52:25.259Z,1.50
2023-08-26T21:55:27.005Z,1.60
2023-08-26T21:58:28.832Z,1.60
2023-08-26T22:01:30.699Z,1.70
2023-08-26T22:04:32.644Z,1.58
2023-08-26T22:07:34.385Z,1.48
2023-08-26T22:10:37.938Z,1.52
2023-08-26T22:13:39.736Z,1.20
2023-08-26T22:16:41.781Z,1.27
2023-08-26T22:19:43.515Z,1.60
2023-08-26T22:22:47.154Z,1.50
2023-08-26T22:25:49.117Z,1.40
2023-08-26T22:28:50.879Z,1.67
2023-08-26T22:31:52.622Z,1.42
2023-08-26T22:34:54.353Z,1.52
2023-08-26T22:37:56.198Z,1.48
2023-08-26T22:40:58.092Z,1.48
2023-08-26T22:44:02.885Z,1.58
2023-08-26T22:47:04.941Z,1.55
2023-08-26T22:50:06.871Z,1.70
2023-08-26T22:53:08.796Z,1.50
2023-08-26T22:56:10.594Z,1.55
2023-08-26T22:59:12.314Z,1.45
2023-08-26T23:02:17.096Z,1.45
2023-08-26T23:05:18.999Z,1.42
2023-08-26T23:08:20.963Z,1.50
2023-08-26T23:11:23.055Z,1.35
2023-08-26T23:14:25.613Z,1.33
2023-08-26T23:17:27.652Z,1.30
2023-08-26T23:20:29.468Z,1.30
2023-08-26T23:23:31.294Z,1.40
2023-08-26T23:26:33.110Z,1.50
2023-08-26T23:29:35.190Z,1.42
2023-08-26T23:32:37.095Z,1.25
2023-08-26T23:35:39.180Z,1.20
2023-08-26T23:38:41.462Z,1.35
2023-08-26T23:41:43.472Z,1.40
2023-08-26T23:44:45.319Z,1.30
2023-08-26T23:47:47.257Z,1.30
2023-08-26T23:50:48.958Z,1.33
2023-08-26T23:53:50.708Z,1.35
2023-08-26T23:56:52.956Z,1.23
2023-08-26T23:59:54.719Z,1.40
